createdAt,value
2023-03-08T00:01:30.347Z,98981.22
2023-03-08T00:04:00.259Z,98949.25
2023-03-08T00:06:29.546Z,98961.31
2023-03-08T00:08:59.976Z,98964.78
2023-03-08T00:11:31.038Z,98966.53
2023-03-08T00:14:01.671Z,98965.66
2023-03-08T00:16:30.399Z,98966.53
2023-03-08T00:18:59.094Z,98958.81
2023-03-08T00:21:27.837Z,98970.06
2023-03-08T00:23:56.546Z,98974.41
2023-03-08T00:26:25.388Z,98978.72
2023-03-08T00:28:55.264Z,98977.03
2023-03-08T00:31:24.059Z,98980.53
2023-03-08T00:33:55.872Z,98987.47
2023-03-08T00:36:24.721Z,98996.19
2023-03-08T00:38:53.513Z,99002.28
2023-03-08T00:41:22.361Z,98998.00
2023-03-08T00:43:51.365Z,98997.16
2023-03-08T00:46:21.240Z,98990.22
2023-03-08T00:48:50.166Z,98984.13
2023-03-08T00:51:21.617Z,98996.22
2023-03-08T00:53:50.638Z,98997.06
2023-03-08T00:56:19.683Z,98989.25
2023-03-08T00:58:48.410Z,98986.69
2023-03-08T01:01:20.483Z,98997.97
2023-03-08T01:03:53.600Z,99004.97
2023-03-08T01:06:24.957Z,98999.75
2023-03-08T01:08:53.797Z,98994.53
2023-03-08T01:11:26.061Z,98958.28
2023-03-08T01:13:56.117Z,98991.19
2023-03-08T01:16:28.954Z,99011.91
2023-03-08T01:18:59.677Z,99017.97
2023-03-08T01:21:29.932Z,99005.81
2023-03-08T01:23:59.152Z,99013.63
2023-03-08T01:26:30.162Z,99012.75
2023-03-08T01:28:59.245Z,99012.78
2023-03-08T01:31:31.803Z,98908.25
2023-03-08T01:34:02.107Z,99009.34
2023-03-08T01:36:30.914Z,99014.63
2023-03-08T01:39:02.440Z,99029.44
2023-03-08T01:41:33.216Z,99022.56
2023-03-08T01:44:03.346Z,99033.00
2023-03-08T01:46:35.728Z,99033.06
2023-03-08T01:49:29.880Z,98937.13
2023-03-08T01:52:07.024Z,98976.91
2023-03-08T01:54:41.249Z,99039.13
2023-03-08T01:57:18.683Z,98996.72
2023-03-08T01:59:50.805Z,98988.88
2023-03-08T02:02:28.526Z,99045.00
2023-03-08T02:04:58.009Z,99046.66
2023-03-08T02:07:28.534Z,99044.81
2023-03-08T02:09:57.386Z,99060.41
2023-03-08T02:12:26.595Z,99028.38
2023-03-08T02:14:56.307Z,99056.91
2023-03-08T02:17:27.346Z,99052.50
2023-03-08T02:20:03.900Z,99058.56
2023-03-08T02:22:32.741Z,99059.38
2023-03-08T02:25:02.556Z,99055.03
2023-03-08T02:27:31.399Z,99056.78
2023-03-08T02:30:03.610Z,99061.13
2023-03-08T02:32:32.096Z,99029.06
2023-03-08T02:35:02.978Z,99054.09
2023-03-08T02:37:33.047Z,99017.84
2023-03-08T02:40:03.166Z,99052.38
2023-03-08T02:42:31.851Z,99063.72
2023-03-08T02:45:00.589Z,99071.53
2023-03-08T02:47:29.589Z,99072.41
2023-03-08T02:49:58.348Z,99063.72
2023-03-08T02:52:27.158Z,99068.91
2023-03-08T02:54:55.976Z,99074.13
2023-03-08T02:57:27.617Z,99059.44
2023-03-08T02:59:57.183Z,99062.91
2023-03-08T03:02:28.488Z,99068.19
2023-03-08T03:05:00.313Z,99062.06
2023-03-08T03:07:30.081Z,99069.94
2023-03-08T03:09:58.924Z,99064.78
2023-03-08T03:12:28.746Z,99067.50
2023-03-08T03:14:57.236Z,99070.97
2023-03-08T03:17:25.822Z,99024.25
2023-03-08T03:19:54.516Z,99064.91
2023-03-08T03:22:23.230Z,99059.69
2023-03-08T03:24:52.673Z,99062.28
2023-03-08T03:27:21.689Z,99069.25
2023-03-08T03:29:51.894Z,99060.56
2023-03-08T03:32:20.793Z,99063.19
2023-03-08T03:34:50.060Z,99059.75
2023-03-08T03:37:21.591Z,99064.16
2023-03-08T03:39:50.365Z,99069.41
2023-03-08T03:42:20.607Z,99066.84
2023-03-08T03:45:08.251Z,99073.81
2023-03-08T03:47:37.739Z,99072.13
2023-03-08T03:50:10.405Z,99077.34
2023-03-08T03:52:52.971Z,99067.88
2023-03-08T03:55:22.609Z,99062.75
2023-03-08T03:57:51.916Z,99078.34
2023-03-08T04:00:23.099Z,99087.03
2023-03-08T04:03:06.484Z,99099.16
2023-03-08T04:05:39.949Z,99111.28
2023-03-08T04:08:10.006Z,99112.16
2023-03-08T04:10:43.025Z,99114.72
2023-03-08T04:13:13.453Z,99115.59
2023-03-08T04:15:45.050Z,99122.53
2023-03-08T04:18:15.933Z,99122.50
2023-03-08T04:20:48.222Z,99119.88
2023-03-08T04:23:18.729Z,99117.25
2023-03-08T04:25:49.427Z,99113.81
2023-03-08T04:28:19.080Z,99106.88
2023-03-08T04:30:49.564Z,99041.13
2023-03-08T04:33:20.193Z,99109.50
2023-03-08T04:35:51.836Z,99106.88
2023-03-08T04:38:24.253Z,99104.28
2023-03-08T04:41:11.743Z,99105.13
2023-03-08T04:44:03.235Z,99097.31
2023-03-08T04:46:43.924Z,99096.44
2023-03-08T04:49:17.590Z,99100.75
2023-03-08T04:51:52.473Z,99107.66
2023-03-08T04:54:21.589Z,99102.47
2023-03-08T04:56:56.163Z,99105.09
2023-03-08T04:59:27.005Z,99102.50
2023-03-08T05:02:00.308Z,99105.13
2023-03-08T05:04:31.629Z,99111.19
2023-03-08T05:07:21.574Z,99107.75
2023-03-08T05:09:52.031Z,99107.72
2023-03-08T05:12:20.755Z,99104.28
2023-03-08T05:14:56.250Z,99099.09
2023-03-08T05:17:28.453Z,99050.66
2023-03-08T05:19:57.633Z,99102.56
2023-03-08T05:22:44.991Z,99094.81
2023-03-08T05:25:20.427Z,99114.66
2023-03-08T05:27:49.275Z,99118.09
2023-03-08T05:30:19.108Z,99084.34
2023-03-08T05:32:48.965Z,99076.53
2023-03-08T05:35:17.563Z,99075.63
2023-03-08T05:37:46.229Z,99125.75
2023-03-08T05:40:15.363Z,99117.06
2023-03-08T05:42:48.056Z,99121.34
2023-03-08T05:45:17.919Z,99116.97
2023-03-08T05:47:48.347Z,99123.91
2023-03-08T05:50:17.337Z,99127.34
2023-03-08T05:52:47.530Z,99132.50
2023-03-08T05:55:21.005Z,99135.94
2023-03-08T05:57:50.066Z,99136.78
2023-03-08T06:00:19.784Z,99075.31
2023-03-08T06:02:55.915Z,99142.81
2023-03-08T06:05:25.510Z,99144.53
2023-03-08T06:07:57.526Z,99147.97
2023-03-08T06:10:26.888Z,99147.97
2023-03-08T06:12:56.469Z,98905.09
2023-03-08T06:15:26.699Z,99158.34
2023-03-08T06:17:56.718Z,99069.19
2023-03-08T06:20:28.221Z,99166.94
2023-03-08T06:22:57.752Z,99166.94
2023-03-08T06:25:29.406Z,99172.03
2023-03-08T06:27:58.131Z,99175.44
2023-03-08T06:30:35.757Z,99176.31
2023-03-08T06:33:07.352Z,99178.91
2023-03-08T06:35:36.339Z,99182.41
2023-03-08T06:38:07.163Z,99175.44
2023-03-08T06:40:36.613Z,99180.59
2023-03-08T06:43:05.724Z,99179.66
2023-03-08T06:45:34.923Z,99179.59
2023-03-08T06:48:03.703Z,99182.38
2023-03-08T06:50:34.124Z,99183.38
2023-03-08T06:53:03.038Z,99173.84
2023-03-08T06:55:46.807Z,99173.91
2023-03-08T06:58:16.647Z,99173.13
2023-03-08T07:00:45.439Z,99168.78
2023-03-08T07:03:14.863Z,99165.34
2023-03-08T07:05:44.652Z,99161.00
2023-03-08T07:08:13.356Z,99161.84
2023-03-08T07:10:47.780Z,99159.13
2023-03-08T07:13:17.529Z,99166.03
2023-03-08T07:15:46.342Z,99167.69
2023-03-08T07:18:16.078Z,99165.03
2023-03-08T07:20:46.298Z,99165.88
2023-03-08T07:23:14.720Z,99176.25
2023-03-08T07:25:43.170Z,99165.84
2023-03-08T07:28:11.866Z,99182.25
2023-03-08T07:30:47.098Z,99188.19
2023-03-08T07:33:16.018Z,99186.19
2023-03-08T07:35:46.057Z,99189.63
2023-03-08T07:38:15.208Z,99186.00
2023-03-08T07:40:44.325Z,99197.00
2023-03-08T07:43:13.410Z,99202.91
2023-03-08T07:45:54.565Z,99203.59
2023-03-08T07:48:23.333Z,99203.59
2023-03-08T07:50:55.519Z,99205.44
2023-03-08T07:53:24.320Z,99203.00
2023-03-08T07:55:53.057Z,99202.25
2023-03-08T07:58:22.343Z,99201.19
2023-03-08T08:00:51.096Z,99188.03
2023-03-08T08:03:19.878Z,99187.81
2023-03-08T08:05:48.652Z,99189.13
2023-03-08T08:08:18.961Z,99190.47
2023-03-08T08:10:47.689Z,99185.81
2023-03-08T08:13:16.428Z,99186.75
2023-03-08T08:15:45.215Z,99193.25
2023-03-08T08:18:13.978Z,99188.59
2023-03-08T08:20:42.737Z,99184.09
2023-03-08T08:23:11.545Z,99186.50
2023-03-08T08:25:43.701Z,99177.16
2023-03-08T08:28:15.534Z,99186.97
2023-03-08T08:30:44.502Z,99174.16
2023-03-08T08:33:13.298Z,99170.06
2023-03-08T08:35:43.592Z,99164.88
2023-03-08T08:38:12.625Z,99164.91
2023-03-08T08:40:44.169Z,99161.63
2023-03-08T08:43:12.998Z,99157.44
2023-03-08T08:45:45.711Z,99101.41
2023-03-08T08:48:15.282Z,99157.53
2023-03-08T08:50:44.387Z,99146.03
2023-03-08T08:53:13.307Z,99150.94
2023-03-08T08:55:45.548Z,99143.53
2023-03-08T08:58:15.254Z,99149.03
2023-03-08T09:00:44.505Z,99143.97
2023-03-08T09:03:13.021Z,99142.38
2023-03-08T09:05:44.395Z,99142.63
2023-03-08T09:08:14.168Z,99076.53
2023-03-08T09:10:44.588Z,99137.19
2023-03-08T09:13:14.413Z,99133.16
2023-03-08T09:15:43.243Z,99134.59
2023-03-08T09:18:12.142Z,99134.22
2023-03-08T09:20:40.837Z,99135.91
2023-03-08T09:23:10.257Z,99145.03
2023-03-08T09:25:39.155Z,99145.78
2023-03-08T09:28:09.978Z,99135.25
2023-03-08T09:30:38.809Z,99128.16
2023-03-08T09:33:07.725Z,99135.47
2023-03-08T09:35:36.511Z,99125.53
2023-03-08T09:38:05.343Z,99123.00
2023-03-08T09:40:46.763Z,99128.69
2023-03-08T09:43:28.370Z,99123.78
2023-03-08T09:45:57.404Z,99116.19
2023-03-08T09:48:32.033Z,98987.38
2023-03-08T09:51:08.249Z,99116.44
2023-03-08T09:53:42.458Z,98970.31
2023-03-08T09:56:27.776Z,99133.78
2023-03-08T09:59:03.689Z,99121.44
2023-03-08T10:01:43.548Z,99040.75
2023-03-08T10:04:48.295Z,99016.63
2023-03-08T10:07:34.610Z,99115.75
2023-03-08T10:10:23.660Z,98969.81
2023-03-08T10:13:20.066Z,99105.72
2023-03-08T10:15:55.555Z,99105.94
2023-03-08T10:18:33.218Z,99097.19
2023-03-08T10:21:03.637Z,99087.75
2023-03-08T10:23:34.424Z,99094.66
2023-03-08T10:26:07.112Z,99091.53
2023-03-08T10:28:35.956Z,99090.81
2023-03-08T10:31:22.614Z,99089.91
2023-03-08T10:34:03.370Z,98948.91
2023-03-08T10:36:32.413Z,99088.31
2023-03-08T10:39:08.696Z,98938.63
2023-03-08T10:41:46.642Z,99028.13
2023-03-08T10:44:29.900Z,99090.47
2023-03-08T10:46:59.744Z,99076.34
2023-03-08T10:49:28.476Z,99078.97
2023-03-08T10:51:59.931Z,99078.69
2023-03-08T10:54:30.045Z,99075.72
2023-03-08T10:57:01.348Z,99068.69
2023-03-08T10:59:33.475Z,99064.59
2023-03-08T11:02:22.474Z,98929.63
2023-03-08T11:04:56.159Z,99042.31
2023-03-08T11:07:27.905Z,99038.22
2023-03-08T11:10:17.951Z,99045.22
2023-03-08T11:12:47.838Z,99040.44
2023-03-08T11:15:17.931Z,99043.69
2023-03-08T11:17:57.275Z,99036.72
2023-03-08T11:20:32.834Z,99033.31
2023-03-08T11:23:25.039Z,99022.41
2023-03-08T11:26:03.769Z,99023.84
2023-03-08T11:29:19.084Z,98986.09
2023-03-08T11:32:01.628Z,99020.66
2023-03-08T11:35:08.363Z,99008.22
2023-03-08T11:37:45.402Z,98996.25
2023-03-08T11:40:26.393Z,98998.53
2023-03-08T11:43:16.990Z,98992.94
2023-03-08T11:45:59.192Z,98988.63
2023-03-08T11:49:11.404Z,98980.69
2023-03-08T11:51:54.034Z,98947.72
2023-03-08T11:54:43.136Z,98932.09
2023-03-08T11:57:15.079Z,98970.22
2023-03-08T11:59:49.439Z,98965.31
2023-03-08T12:02:23.311Z,98921.56
2023-03-08T12:05:04.796Z,98879.69
2023-03-08T12:07:41.313Z,98903.41
2023-03-08T12:10:19.934Z,98914.00
2023-03-08T12:12:56.518Z,98936.53
2023-03-08T12:15:32.676Z,98937.84
2023-03-08T12:18:13.798Z,98891.66
2023-03-08T12:20:46.450Z,98926.13
2023-03-08T12:23:27.640Z,98861.81
2023-03-08T12:26:08.482Z,98902.09
2023-03-08T12:28:44.999Z,98904.59
2023-03-08T12:31:27.747Z,98902.44
2023-03-08T12:33:59.340Z,98902.16
2023-03-08T12:36:39.570Z,98904.06
2023-03-08T12:39:26.560Z,98894.75
2023-03-08T12:42:14.996Z,98896.66
2023-03-08T12:44:44.691Z,98774.75
2023-03-08T12:47:24.098Z,98895.09
2023-03-08T12:49:56.406Z,98664.88
2023-03-08T12:52:35.037Z,98735.31
2023-03-08T12:55:18.117Z,98875.97
2023-03-08T12:57:54.934Z,98863.03
2023-03-08T13:00:31.244Z,98778.56
2023-03-08T13:03:06.689Z,98860.41
2023-03-08T13:05:38.648Z,98780.56
2023-03-08T13:08:29.911Z,98865.19
2023-03-08T13:11:16.268Z,98867.09
2023-03-08T13:13:53.815Z,98869.59
2023-03-08T13:16:36.497Z,98784.66
2023-03-08T13:19:21.975Z,98863.28
2023-03-08T13:36:18.183Z,98868.50
2023-03-08T13:38:57.324Z,98863.34
2023-03-08T13:41:35.024Z,98778.56
2023-03-08T13:44:05.135Z,98849.41
2023-03-08T13:46:34.310Z,98844.09
2023-03-08T13:49:03.391Z,98842.16
2023-03-08T13:51:33.270Z,98734.59
2023-03-08T13:54:02.185Z,98839.59
2023-03-08T13:56:31.045Z,98843.97
2023-03-08T13:59:01.988Z,98840.50
2023-03-08T14:01:30.838Z,98838.34
2023-03-08T14:04:01.231Z,98836.75
2023-03-08T14:06:35.670Z,98841.81
2023-03-08T14:09:04.769Z,98839.34
2023-03-08T14:11:38.420Z,98839.69
2023-03-08T14:14:15.316Z,98832.59
2023-03-08T14:16:44.555Z,98820.16
2023-03-08T14:19:25.943Z,98791.38
2023-03-08T14:22:00.297Z,98807.63
2023-03-08T14:24:32.301Z,98816.88
2023-03-08T14:27:03.308Z,98788.38
2023-03-08T14:29:34.600Z,98751.50
2023-03-08T14:32:08.029Z,98787.34
2023-03-08T14:34:41.495Z,98787.41
2023-03-08T14:37:24.076Z,98780.47
2023-03-08T14:39:56.222Z,98777.88
2023-03-08T14:42:31.578Z,98763.56
2023-03-08T14:45:03.940Z,98750.00
2023-03-08T14:47:35.616Z,98758.59
2023-03-08T14:50:25.372Z,98742.56
2023-03-08T14:52:57.165Z,98739.69
2023-03-08T14:55:28.989Z,98711.94
2023-03-08T14:58:01.437Z,98735.31
2023-03-08T15:00:31.346Z,98702.19
2023-03-08T15:03:00.972Z,98734.13
2023-03-08T15:05:31.261Z,98731.28
2023-03-08T15:08:01.813Z,98736.84
2023-03-08T15:10:35.733Z,98714.41
2023-03-08T15:13:05.310Z,98727.56
2023-03-08T15:15:34.155Z,98725.88
2023-03-08T15:18:02.882Z,98726.56
2023-03-08T15:20:32.159Z,98727.25
2023-03-08T15:23:07.204Z,98729.09
2023-03-08T15:25:37.764Z,98728.31
2023-03-08T15:28:07.491Z,98722.38
2023-03-08T15:30:36.337Z,98723.56
2023-03-08T15:33:05.099Z,98718.50
2023-03-08T15:35:34.117Z,98711.53
2023-03-08T15:38:04.366Z,98708.84
2023-03-08T15:40:35.781Z,98699.38
2023-03-08T15:43:04.697Z,98695.72
2023-03-08T15:45:33.502Z,98694.59
2023-03-08T15:48:04.162Z,98693.75
2023-03-08T15:50:34.531Z,98686.72
2023-03-08T15:53:04.833Z,98687.44
2023-03-08T15:55:34.019Z,98685.97
2023-03-08T15:58:02.748Z,98688.72
2023-03-08T16:00:32.421Z,98685.31
2023-03-08T16:03:01.170Z,98691.66
2023-03-08T16:05:31.549Z,98687.16
2023-03-08T16:08:04.290Z,98684.69
2023-03-08T16:10:40.500Z,98681.97
2023-03-08T16:13:09.566Z,98685.50
2023-03-08T16:15:41.889Z,98673.22
2023-03-08T16:18:10.655Z,98670.63
2023-03-08T16:20:42.032Z,98567.31
2023-03-08T16:23:13.169Z,98665.31
2023-03-08T16:25:43.740Z,98666.28
2023-03-08T16:28:13.234Z,98655.19
2023-03-08T16:30:43.003Z,98656.91
2023-03-08T16:33:12.203Z,98648.06
2023-03-08T16:35:41.918Z,98660.38
2023-03-08T16:38:12.524Z,98656.78
2023-03-08T16:40:41.910Z,98654.34
2023-03-08T16:43:11.219Z,98657.75
2023-03-08T16:45:54.609Z,98646.69
2023-03-08T16:48:24.089Z,98650.22
2023-03-08T16:50:55.244Z,98631.31
2023-03-08T16:53:27.501Z,98656.25
2023-03-08T16:55:56.806Z,98653.72
2023-03-08T16:58:32.808Z,98651.09
2023-03-08T17:01:02.236Z,98648.56
2023-03-08T17:03:31.303Z,98644.22
2023-03-08T17:06:00.075Z,98633.78
2023-03-08T17:08:31.108Z,98631.13
2023-03-08T17:11:00.572Z,98631.09
2023-03-08T17:13:29.401Z,98627.63
2023-03-08T17:15:59.225Z,98626.75
2023-03-08T17:18:28.164Z,98627.66
2023-03-08T17:20:58.000Z,98631.09
2023-03-08T17:23:28.775Z,98637.84
2023-03-08T17:26:00.098Z,98435.16
2023-03-08T17:28:29.435Z,98634.47
2023-03-08T17:30:58.277Z,98634.63
2023-03-08T17:33:27.923Z,98629.41
2023-03-08T17:35:59.297Z,98538.28
2023-03-08T17:38:29.015Z,98615.41
2023-03-08T17:40:59.403Z,98620.66
2023-03-08T17:43:28.742Z,98619.88
2023-03-08T17:46:02.329Z,98618.16
2023-03-08T17:48:32.264Z,98615.38
2023-03-08T17:51:04.540Z,98615.59
2023-03-08T17:53:34.670Z,98612.22
2023-03-08T17:56:07.971Z,98610.44
2023-03-08T17:58:37.518Z,98592.19
2023-03-08T18:01:10.980Z,98604.38
2023-03-08T18:03:40.432Z,98602.59
2023-03-08T18:06:15.965Z,98591.25
2023-03-08T18:08:44.815Z,98590.34
2023-03-08T18:11:14.732Z,98568.13
2023-03-08T18:13:43.507Z,98585.28
2023-03-08T18:16:12.444Z,98594.75
2023-03-08T18:18:41.782Z,98590.31
2023-03-08T18:21:14.069Z,98596.59
2023-03-08T18:23:44.413Z,98594.78
2023-03-08T18:26:17.321Z,98564.00
2023-03-08T18:28:46.646Z,98600.19
2023-03-08T18:31:20.427Z,98605.50
2023-03-08T18:33:49.540Z,98603.72
2023-03-08T18:36:19.637Z,98602.72
2023-03-08T18:38:48.991Z,98604.47
2023-03-08T18:41:22.503Z,98600.91
2023-03-08T18:43:54.659Z,98581.25
2023-03-08T18:46:28.887Z,98591.56
2023-03-08T18:48:59.101Z,98598.44
2023-03-08T18:51:28.113Z,98594.41
2023-03-08T18:53:59.204Z,98578.16
2023-03-08T18:56:31.212Z,98611.88
2023-03-08T18:59:08.923Z,98605.81
2023-03-08T19:01:38.486Z,98614.38
2023-03-08T19:04:08.383Z,98601.31
2023-03-08T19:06:38.005Z,98601.41
2023-03-08T19:09:11.977Z,98556.69
2023-03-08T19:11:43.031Z,98568.78
2023-03-08T19:14:13.667Z,98605.72
2023-03-08T19:16:42.858Z,98611.06
2023-03-08T19:19:14.777Z,98569.84
2023-03-08T19:21:46.454Z,98519.22
2023-03-08T19:24:17.946Z,98556.16
2023-03-08T19:26:53.328Z,98616.53
2023-03-08T19:29:25.229Z,98570.91
2023-03-08T19:31:56.539Z,98612.28
2023-03-08T19:34:28.688Z,98607.88
2023-03-08T19:36:58.457Z,98599.25
2023-03-08T19:39:30.785Z,98595.75
2023-03-08T19:42:03.891Z,98545.81
2023-03-08T19:44:34.207Z,98597.38
2023-03-08T19:47:04.589Z,98591.41
2023-03-08T19:49:36.426Z,98603.59
2023-03-08T19:52:07.955Z,98597.50
2023-03-08T19:54:37.342Z,98580.13
2023-03-08T19:57:07.918Z,98586.13
2023-03-08T19:59:37.918Z,98587.88
2023-03-08T20:02:09.089Z,98588.81
2023-03-08T20:04:37.942Z,98559.59
2023-03-08T20:07:06.498Z,98587.25
2023-03-08T20:09:35.416Z,98585.53
2023-03-08T20:12:04.361Z,98590.63
2023-03-08T20:14:34.390Z,98561.22
2023-03-08T20:17:05.018Z,98597.50
2023-03-08T20:19:34.320Z,98590.63
2023-03-08T20:22:03.041Z,98534.69
2023-03-08T20:24:32.455Z,98591.59
2023-03-08T20:27:02.015Z,98590.75
2023-03-08T20:29:30.740Z,98582.88
2023-03-08T20:32:00.717Z,98588.16
2023-03-08T20:34:29.539Z,98589.09
2023-03-08T20:36:57.982Z,98593.38
2023-03-08T20:39:26.460Z,98588.22
2023-03-08T20:41:56.084Z,98591.72
2023-03-08T20:44:24.871Z,98599.53
2023-03-08T20:46:53.609Z,98590.75
2023-03-08T20:49:24.319Z,98512.44
2023-03-08T20:51:53.032Z,98590.69
2023-03-08T20:54:21.771Z,98589.88
2023-03-08T20:56:50.529Z,98593.41
2023-03-08T20:59:23.120Z,98595.16
2023-03-08T21:01:52.306Z,98593.34
2023-03-08T21:04:22.793Z,98592.41
2023-03-08T21:06:51.883Z,98596.78
2023-03-08T21:09:20.977Z,98600.25
2023-03-08T21:11:49.958Z,98600.22
2023-03-08T21:14:18.746Z,98589.81
2023-03-08T21:16:47.584Z,98589.72
2023-03-08T21:19:17.026Z,98596.75
2023-03-08T21:21:47.181Z,98592.31
2023-03-08T21:24:18.267Z,98588.03
2023-03-08T21:26:47.000Z,98593.34
2023-03-08T21:29:19.183Z,98590.63
2023-03-08T21:31:50.735Z,98589.81
2023-03-08T21:34:21.258Z,98599.16
2023-03-08T21:36:51.465Z,98593.19
2023-03-08T21:39:20.455Z,98598.38
2023-03-08T21:41:50.561Z,98596.66
2023-03-08T21:44:21.818Z,98587.22
2023-03-08T21:46:51.894Z,98583.69
2023-03-08T21:49:23.425Z,98510.44
2023-03-08T21:51:56.166Z,98561.81
2023-03-08T21:54:26.784Z,98491.44
2023-03-08T21:56:56.020Z,98570.59
2023-03-08T21:59:27.027Z,98554.16
2023-03-08T22:01:58.848Z,98493.94
2023-03-08T22:04:28.559Z,98553.16
2023-03-08T22:06:59.082Z,98547.13
2023-03-08T22:09:29.200Z,98552.34
2023-03-08T22:11:59.312Z,98547.91
2023-03-08T22:14:28.224Z,98478.25
2023-03-08T22:16:57.119Z,98536.63
2023-03-08T22:19:25.839Z,98541.78
2023-03-08T22:21:54.537Z,98544.34
2023-03-08T22:24:24.320Z,98547.91
2023-03-08T22:26:52.725Z,98546.06
2023-03-08T22:29:21.488Z,98542.69
2023-03-08T22:31:50.285Z,98548.59
2023-03-08T22:34:19.121Z,98548.47
2023-03-08T22:36:47.899Z,98545.91
2023-03-08T22:39:16.722Z,98552.06
2023-03-08T22:41:46.608Z,98556.44
2023-03-08T22:44:16.467Z,98559.03
2023-03-08T22:46:45.235Z,98555.72
2023-03-08T22:49:16.082Z,98547.88
2023-03-08T22:51:45.708Z,98541.81
2023-03-08T22:54:17.984Z,98505.63
2023-03-08T22:56:49.998Z,98539.31
2023-03-08T22:59:18.883Z,98540.13
2023-03-08T23:01:47.655Z,98547.88
2023-03-08T23:04:16.532Z,98541.06
2023-03-08T23:06:47.642Z,98540.00
2023-03-08T23:09:18.102Z,98547.91
2023-03-08T23:11:48.326Z,98536.75
2023-03-08T23:14:17.258Z,98535.84
2023-03-08T23:16:47.713Z,98539.31
2023-03-08T23:19:21.605Z,98528.09
2023-03-08T23:21:50.577Z,98534.19
2023-03-08T23:24:19.483Z,98531.66
2023-03-08T23:26:49.584Z,98539.25
2023-03-08T23:29:18.367Z,98541.13
2023-03-08T23:31:47.710Z,98539.25
2023-03-08T23:34:16.477Z,98532.44
2023-03-08T23:36:45.293Z,98525.66
2023-03-08T23:39:13.934Z,98453.31
2023-03-08T23:41:42.926Z,98517.78
2023-03-08T23:44:13.927Z,98525.75
2023-03-08T23:46:46.181Z,98518.63
2023-03-08T23:49:16.952Z,98516.91
2023-03-08T23:51:46.240Z,98510.97
2023-03-08T23:54:14.982Z,98511.75
2023-03-08T23:56:44.219Z,98513.41
2023-03-08T23:59:18.763Z,98414.41
